PWSweather.com
Personal Weather Stations
Station Observations
KAKWILLO2
Kelly Lake, Willow, AK 99688

Kelly LakeWillow, AK 99688

Lat: 61.713859, Lon: -150.021621

Elevation: 250

Station Type: Davis Vantage PRO2

http://www.willowweather.com

Latest ConditionsUpdated 4:15:19 PM AKST Saturday, Jul 20, 2019
Currently Today's Max Today's Min Today's Average
Temperature 69.0°F20.6°C 69.6°F20.9°C 56.0°F13.3°C 62.6°F17.0°C
Dew Point 55.9°F13.3°C 57.2°F14.0°C 51.8°F11.0°C 54.8°F12.7°C
Winds Calm Calm 2.3 mph -3.7 kmh - - 0.4 mph 0.6 kmh
Wind Gusts 1.2 mph1.9 kmh 4.6 mph7.4 kmh - -
Humidity 63% 88% 62% 76%
Pressure 30.05 in1017.6 mb 30.07 in1018.3 mb 30.00 in1015.9 mb -
Hour Temp Dew Point Humidity Winds Wind Gusts Pressure Precip Precip Rate Daily Precip Total
04:15 PM 69.0°F20.6°C 55.9°F13.3°C 63% Calm Calm 1.2 mph1.9 kmh 30.05 in1017.6 mb - 0.00 in0.0 mm 0.00 in0.0 mm
04:10 PM 69.0°F20.6°C 55.9°F13.3°C 63% 1.2 mph SE1.9 kmh SE 2.3 mph3.7 kmh 30.06 in1017.9 mb - 0.00 in0.0 mm 0.00 in0.0 mm
04:00 PM 69.3°F20.7°C 55.7°F13.2°C 62% 1.2 mph SSE1.9 kmh SSE 3.5 mph5.6 kmh 30.06 in1017.9 mb - 0.00 in0.0 mm 0.00 in0.0 mm
03:55 PM 69.3°F20.7°C 56.6°F13.7°C 64% Calm Calm 3.5 mph5.6 kmh 30.06 in1017.9 mb - 0.00 in0.0 mm 0.00 in0.0 mm
03:50 PM 69.1°F20.6°C 56.0°F13.3°C 63% 1.2 mph SSE1.9 kmh SSE 2.3 mph3.7 kmh 30.06 in1017.9 mb - 0.00 in0.0 mm 0.00 in0.0 mm
03:45 PM 69.2°F20.7°C 56.5°F13.6°C 64% 1.2 mph SSE1.9 kmh SSE 3.5 mph5.6 kmh 30.06 in1017.9 mb - 0.00 in0.0 mm 0.00 in0.0 mm
03:40 PM 69.4°F20.8°C 55.8°F13.2°C 62% 1.2 mph SSE1.9 kmh SSE 2.3 mph3.7 kmh 30.06 in1017.9 mb - 0.00 in0.0 mm 0.00 in0.0 mm
03:35 PM 69.6°F20.9°C 56.9°F13.8°C 64% 1.2 mph S1.9 kmh S 2.3 mph3.7 kmh 30.06 in1017.9 mb - 0.00 in0.0 mm 0.00 in0.0 mm
03:30 PM 69.5°F20.8°C 57.2°F14.0°C 65% 1.2 mph S1.9 kmh S 3.5 mph5.6 kmh 30.06 in1017.9 mb - 0.00 in0.0 mm 0.00 in0.0 mm
03:25 PM 69.2°F20.7°C 56.5°F13.6°C 64% 2.3 mph S3.7 kmh S 3.5 mph5.6 kmh 30.06 in1017.9 mb - 0.00 in0.0 mm 0.00 in0.0 mm
03:20 PM 68.8°F20.4°C 56.6°F13.7°C 65% 1.2 mph SSE1.9 kmh SSE 3.5 mph5.6 kmh 30.06 in1017.9 mb - 0.00 in0.0 mm 0.00 in0.0 mm
03:15 PM 68.8°F20.4°C 56.1°F13.4°C 64% 1.2 mph S1.9 kmh S 1.2 mph1.9 kmh 30.06 in1017.9 mb - 0.00 in0.0 mm 0.00 in0.0 mm
03:10 PM 68.8°F20.4°C 56.5°F13.6°C 65% 1.2 mph S1.9 kmh S 3.5 mph5.6 kmh 30.07 in1018.3 mb - 0.00 in0.0 mm 0.00 in0.0 mm
03:00 PM 68.5°F20.3°C 56.3°F13.5°C 65% Calm Calm 3.5 mph5.6 kmh 30.07 in1018.3 mb - 0.00 in0.0 mm 0.00 in0.0 mm
02:55 PM 68.4°F20.2°C 56.6°F13.7°C 66% Calm Calm 1.2 mph1.9 kmh 30.07 in1018.3 mb - 0.00 in0.0 mm 0.00 in0.0 mm
02:50 PM 68.4°F20.2°C 56.2°F13.4°C 65% 1.2 mph SE1.9 kmh SE 3.5 mph5.6 kmh 30.07 in1018.3 mb - 0.00 in0.0 mm 0.00 in0.0 mm
02:45 PM 68.0°F20.0°C 56.7°F13.7°C 67% Calm Calm 1.2 mph1.9 kmh 30.07 in1018.3 mb - 0.00 in0.0 mm 0.00 in0.0 mm
02:40 PM 67.6°F19.8°C 55.9°F13.3°C 66% 1.2 mph S1.9 kmh S 2.3 mph3.7 kmh 30.07 in1018.3 mb - 0.00 in0.0 mm 0.00 in0.0 mm
02:35 PM 67.3°F19.6°C 55.6°F13.1°C 66% 1.2 mph SE1.9 kmh SE 4.6 mph7.4 kmh 30.07 in1018.3 mb - 0.00 in0.0 mm 0.00 in0.0 mm
02:30 PM 67.2°F19.6°C 55.9°F13.3°C 67% Calm Calm 1.2 mph1.9 kmh 30.07 in1018.3 mb - 0.00 in0.0 mm 0.00 in0.0 mm
02:25 PM 67.1°F19.5°C 55.8°F13.2°C 67% 1.2 mph SSE1.9 kmh SSE 3.5 mph5.6 kmh 30.07 in1018.3 mb - 0.00 in0.0 mm 0.00 in0.0 mm
02:20 PM 66.9°F19.4°C 56.0°F13.3°C 68% Calm Calm 3.5 mph5.6 kmh 30.07 in1018.3 mb - 0.00 in0.0 mm 0.00 in0.0 mm
02:15 PM 66.8°F19.3°C 56.7°F13.7°C 70% Calm Calm 1.2 mph1.9 kmh 30.07 in1018.3 mb - 0.00 in0.0 mm 0.00 in0.0 mm
02:10 PM 67.0°F19.4°C 56.1°F13.4°C 68% Calm Calm 2.3 mph3.7 kmh 30.07 in1018.3 mb - 0.00 in0.0 mm 0.00 in0.0 mm
02:00 PM 67.6°F19.8°C 56.2°F13.4°C 67% 1.2 mph SSE1.9 kmh SSE 3.5 mph5.6 kmh 30.07 in1018.3 mb - 0.00 in0.0 mm 0.00 in0.0 mm
01:55 PM 67.8°F19.9°C 56.4°F13.6°C 67% Calm Calm 2.3 mph3.7 kmh 30.07 in1018.3 mb - 0.00 in0.0 mm 0.00 in0.0 mm
01:50 PM 68.0°F20.0°C 56.2°F13.4°C 66% 1.2 mph ESE1.9 kmh ESE 1.2 mph1.9 kmh 30.07 in1018.3 mb - 0.00 in0.0 mm 0.00 in0.0 mm
01:45 PM 68.0°F20.0°C 57.0°F13.9°C 68% Calm Calm 1.2 mph1.9 kmh 30.07 in1018.3 mb - 0.00 in0.0 mm 0.00 in0.0 mm
01:40 PM 68.2°F20.1°C 56.4°F13.6°C 66% Calm Calm 1.2 mph1.9 kmh 30.07 in1018.3 mb - 0.00 in0.0 mm 0.00 in0.0 mm
01:35 PM 68.2°F20.1°C 57.2°F14.0°C 68% Calm Calm 3.5 mph5.6 kmh 30.07 in1018.3 mb - 0.00 in0.0 mm 0.00 in0.0 mm
01:30 PM 67.9°F19.9°C 56.5°F13.6°C 67% 1.2 mph SSW1.9 kmh SSW 3.5 mph5.6 kmh 30.07 in1018.3 mb - 0.00 in0.0 mm 0.00 in0.0 mm
01:25 PM 67.9°F19.9°C 56.9°F13.8°C 68% Calm Calm 2.3 mph3.7 kmh 30.07 in1018.3 mb - 0.00 in0.0 mm 0.00 in0.0 mm
01:20 PM 67.6°F19.8°C 56.7°F13.7°C 68% Calm Calm 2.3 mph3.7 kmh 30.07 in1018.3 mb - 0.00 in0.0 mm 0.00 in0.0 mm
01:15 PM 67.5°F19.7°C 56.6°F13.7°C 68% 1.2 mph SE1.9 kmh SE 3.5 mph5.6 kmh 30.07 in1018.3 mb - 0.00 in0.0 mm 0.00 in0.0 mm
01:10 PM 67.5°F19.7°C 56.1°F13.4°C 67% Calm Calm 1.2 mph1.9 kmh 30.07 in1018.3 mb - 0.00 in0.0 mm 0.00 in0.0 mm
01:00 PM 67.0°F19.4°C 56.5°F13.6°C 69% 1.2 mph S1.9 kmh S 2.3 mph3.7 kmh 30.07 in1018.3 mb - 0.00 in0.0 mm 0.00 in0.0 mm
12:55 PM 66.8°F19.3°C 56.3°F13.5°C 69% 1.2 mph SSE1.9 kmh SSE 3.5 mph5.6 kmh 30.07 in1018.3 mb - 0.00 in0.0 mm 0.00 in0.0 mm
12:50 PM 66.7°F19.3°C 56.2°F13.4°C 69% 1.2 mph S1.9 kmh S 2.3 mph3.7 kmh 30.07 in1018.3 mb - 0.00 in0.0 mm 0.00 in0.0 mm
12:45 PM 66.3°F19.1°C 56.6°F13.7°C 71% 1.2 mph S1.9 kmh S 3.5 mph5.6 kmh 30.07 in1018.3 mb - 0.00 in0.0 mm 0.00 in0.0 mm
12:40 PM 66.0°F18.9°C 56.8°F13.8°C 72% 1.2 mph S1.9 kmh S 2.3 mph3.7 kmh 30.07 in1018.3 mb - 0.00 in0.0 mm 0.00 in0.0 mm
12:35 PM 65.8°F18.8°C 56.1°F13.4°C 71% Calm Calm 1.2 mph1.9 kmh 30.07 in1018.3 mb - 0.00 in0.0 mm 0.00 in0.0 mm
12:30 PM 65.8°F18.8°C 56.1°F13.4°C 71% Calm Calm 2.3 mph3.7 kmh 30.07 in1018.3 mb - 0.00 in0.0 mm 0.00 in0.0 mm
12:25 PM 65.7°F18.7°C 56.0°F13.3°C 71% Calm Calm 3.5 mph5.6 kmh 30.07 in1018.3 mb - 0.00 in0.0 mm 0.00 in0.0 mm
12:20 PM 65.3°F18.5°C 56.1°F13.4°C 72% 1.2 mph SSE1.9 kmh SSE 3.5 mph5.6 kmh 30.07 in1018.3 mb - 0.00 in0.0 mm 0.00 in0.0 mm
12:15 PM 65.1°F18.4°C 55.8°F13.2°C 72% 1.2 mph SSE1.9 kmh SSE 3.5 mph5.6 kmh 30.07 in1018.3 mb - 0.00 in0.0 mm 0.00 in0.0 mm
12:10 PM 65.0°F18.3°C 56.1°F13.4°C 73% Calm Calm 1.2 mph1.9 kmh 30.07 in1018.3 mb - 0.00 in0.0 mm 0.00 in0.0 mm
12:00 PM 65.0°F18.3°C 56.1°F13.4°C 73% Calm Calm 1.2 mph1.9 kmh 30.07 in1018.3 mb - 0.00 in0.0 mm 0.00 in0.0 mm
11:55 AM 64.8°F18.2°C 55.9°F13.3°C 73% 1.2 mph S1.9 kmh S 3.5 mph5.6 kmh 30.07 in1018.3 mb - 0.00 in0.0 mm 0.00 in0.0 mm
11:50 AM 64.5°F18.1°C 56.0°F13.3°C 74% 1.2 mph S1.9 kmh S 3.5 mph5.6 kmh 30.07 in1018.3 mb - 0.00 in0.0 mm 0.00 in0.0 mm
11:45 AM 64.3°F17.9°C 55.8°F13.2°C 74% Calm Calm 1.2 mph1.9 kmh 30.07 in1018.3 mb - 0.00 in0.0 mm 0.00 in0.0 mm
11:40 AM 64.3°F17.9°C 55.1°F12.8°C 72% 1.2 mph SSE1.9 kmh SSE 3.5 mph5.6 kmh 30.07 in1018.3 mb - 0.00 in0.0 mm 0.00 in0.0 mm
11:35 AM 64.4°F18.0°C 55.6°F13.1°C 73% 1.2 mph SE1.9 kmh SE 4.6 mph7.4 kmh 30.07 in1018.3 mb - 0.00 in0.0 mm 0.00 in0.0 mm
11:30 AM 64.3°F17.9°C 55.4°F13.0°C 73% Calm Calm 1.2 mph1.9 kmh 30.07 in1018.3 mb - 0.00 in0.0 mm 0.00 in0.0 mm
11:25 AM 64.1°F17.8°C 55.6°F13.1°C 74% Calm Calm 1.2 mph1.9 kmh 30.07 in1018.3 mb - 0.00 in0.0 mm 0.00 in0.0 mm
11:20 AM 64.0°F17.8°C 55.5°F13.1°C 74% Calm Calm -- 30.07 in1018.3 mb - 0.00 in0.0 mm 0.00 in0.0 mm
11:15 AM 64.2°F17.9°C 55.0°F12.8°C 72% 1.2 mph SE1.9 kmh SE 1.2 mph1.9 kmh 30.07 in1018.3 mb - 0.00 in0.0 mm 0.00 in0.0 mm
11:10 AM 64.3°F17.9°C 55.5°F13.1°C 73% Calm Calm 1.2 mph1.9 kmh 30.07 in1018.3 mb - 0.00 in0.0 mm 0.00 in0.0 mm
11:00 AM 64.3°F17.9°C 55.8°F13.2°C 74% Calm Calm 1.2 mph1.9 kmh 30.07 in1018.3 mb - 0.00 in0.0 mm 0.00 in0.0 mm
10:55 AM 64.3°F17.9°C 55.1°F12.8°C 72% 1.2 mph SE1.9 kmh SE 2.3 mph3.7 kmh 30.07 in1018.3 mb - 0.00 in0.0 mm 0.00 in0.0 mm
10:50 AM 64.1°F17.8°C 55.2°F12.9°C 73% Calm Calm 1.2 mph1.9 kmh 30.07 in1018.3 mb - 0.00 in0.0 mm 0.00 in0.0 mm
10:45 AM 64.0°F17.8°C 55.2°F12.9°C 73% Calm Calm 1.2 mph1.9 kmh 30.07 in1018.3 mb - 0.00 in0.0 mm 0.00 in0.0 mm
10:40 AM 64.0°F17.8°C 55.5°F13.1°C 74% Calm Calm 3.5 mph5.6 kmh 30.07 in1018.3 mb - 0.00 in0.0 mm 0.00 in0.0 mm
10:35 AM 63.8°F17.7°C 55.7°F13.2°C 75% 1.2 mph SE1.9 kmh SE 4.6 mph7.4 kmh 30.07 in1018.3 mb - 0.00 in0.0 mm 0.00 in0.0 mm
10:30 AM 63.6°F17.6°C 55.5°F13.1°C 75% Calm Calm 1.2 mph1.9 kmh 30.07 in1018.3 mb - 0.00 in0.0 mm 0.00 in0.0 mm
10:25 AM 63.2°F17.3°C 55.2°F12.9°C 75% Calm Calm -- 30.07 in1018.3 mb - 0.00 in0.0 mm 0.00 in0.0 mm
10:20 AM 63.0°F17.2°C 55.4°F13.0°C 76% Calm Calm 1.2 mph1.9 kmh 30.07 in1018.3 mb - 0.00 in0.0 mm 0.00 in0.0 mm
10:15 AM 62.9°F17.2°C 55.2°F12.9°C 76% 1.2 mph S1.9 kmh S 3.5 mph5.6 kmh 30.07 in1018.3 mb - 0.00 in0.0 mm 0.00 in0.0 mm
10:10 AM 62.8°F17.1°C 54.8°F12.7°C 75% 1.2 mph SE1.9 kmh SE 2.3 mph3.7 kmh 30.07 in1018.3 mb - 0.00 in0.0 mm 0.00 in0.0 mm
10:00 AM 62.8°F17.1°C 55.1°F12.8°C 76% 1.2 mph SE1.9 kmh SE 2.3 mph3.7 kmh 30.07 in1018.3 mb - 0.00 in0.0 mm 0.00 in0.0 mm
09:55 AM 62.8°F17.1°C 54.8°F12.7°C 75% Calm Calm 1.2 mph1.9 kmh 30.07 in1018.3 mb - 0.00 in0.0 mm 0.00 in0.0 mm
09:50 AM 62.8°F17.1°C 55.2°F12.9°C 76% Calm Calm 1.2 mph1.9 kmh 30.07 in1018.3 mb - 0.00 in0.0 mm 0.00 in0.0 mm
09:45 AM 62.9°F17.2°C 55.2°F12.9°C 76% Calm Calm 1.2 mph1.9 kmh 30.07 in1018.3 mb - 0.00 in0.0 mm 0.00 in0.0 mm
09:40 AM 62.9°F17.2°C 54.9°F12.7°C 75% Calm Calm 1.2 mph1.9 kmh 30.07 in1018.3 mb - 0.00 in0.0 mm 0.00 in0.0 mm
09:35 AM 62.9°F17.2°C 54.9°F12.7°C 75% 1.2 mph SSE1.9 kmh SSE 2.3 mph3.7 kmh 30.07 in1018.3 mb - 0.00 in0.0 mm 0.00 in0.0 mm
09:30 AM 63.0°F17.2°C 55.0°F12.8°C 75% 1.2 mph SSE1.9 kmh SSE 3.5 mph5.6 kmh 30.07 in1018.3 mb - 0.00 in0.0 mm 0.00 in0.0 mm
09:25 AM 63.2°F17.3°C 54.8°F12.7°C 74% Calm Calm 1.2 mph1.9 kmh 30.07 in1018.3 mb - 0.00 in0.0 mm 0.00 in0.0 mm
09:20 AM 63.4°F17.4°C 54.9°F12.7°C 74% 1.2 mph SSE1.9 kmh SSE 2.3 mph3.7 kmh 30.07 in1018.3 mb - 0.00 in0.0 mm 0.00 in0.0 mm
09:15 AM 63.6°F17.6°C 55.2°F12.9°C 74% 2.3 mph S3.7 kmh S 4.6 mph7.4 kmh 30.07 in1018.3 mb - 0.00 in0.0 mm 0.00 in0.0 mm
09:10 AM 63.6°F17.6°C 55.2°F12.9°C 74% Calm Calm 1.2 mph1.9 kmh 30.07 in1018.3 mb - 0.00 in0.0 mm 0.00 in0.0 mm
09:00 AM 63.2°F17.3°C 55.1°F12.8°C 75% 1.2 mph S1.9 kmh S 4.6 mph7.4 kmh 30.07 in1018.3 mb - 0.00 in0.0 mm 0.00 in0.0 mm
08:55 AM 63.2°F17.3°C 55.5°F13.1°C 76% 1.2 mph S1.9 kmh S 2.3 mph3.7 kmh 30.07 in1018.3 mb - 0.00 in0.0 mm 0.00 in0.0 mm
08:50 AM 63.1°F17.3°C 55.4°F13.0°C 76% 1.2 mph S1.9 kmh S 3.5 mph5.6 kmh 30.07 in1018.3 mb - 0.00 in0.0 mm 0.00 in0.0 mm
08:45 AM 63.0°F17.2°C 55.3°F12.9°C 76% 2.3 mph S3.7 kmh S 4.6 mph7.4 kmh 30.07 in1018.3 mb - 0.00 in0.0 mm 0.00 in0.0 mm
08:40 AM 62.9°F17.2°C 55.2°F12.9°C 76% 1.2 mph SSE1.9 kmh SSE 4.6 mph7.4 kmh 30.07 in1018.3 mb - 0.00 in0.0 mm 0.00 in0.0 mm
08:35 AM 62.8°F17.1°C 55.5°F13.1°C 77% Calm Calm 1.2 mph1.9 kmh 30.07 in1018.3 mb - 0.00 in0.0 mm 0.00 in0.0 mm
08:30 AM 62.6°F17.0°C 55.6°F13.1°C 78% Calm Calm 2.3 mph3.7 kmh 30.07 in1018.3 mb - 0.00 in0.0 mm 0.00 in0.0 mm
08:25 AM 62.3°F16.8°C 55.4°F13.0°C 78% Calm Calm -- 30.07 in1018.3 mb - 0.00 in0.0 mm 0.00 in0.0 mm
08:20 AM 62.2°F16.8°C 54.9°F12.7°C 77% Calm Calm 1.2 mph1.9 kmh 30.06 in1017.9 mb - 0.00 in0.0 mm 0.00 in0.0 mm
08:15 AM 62.1°F16.7°C 54.8°F12.7°C 77% 1.2 mph S1.9 kmh S 4.6 mph7.4 kmh 30.06 in1017.9 mb - 0.00 in0.0 mm 0.00 in0.0 mm
08:10 AM 62.1°F16.7°C 55.1°F12.8°C 78% 1.2 mph SSE1.9 kmh SSE 3.5 mph5.6 kmh 30.06 in1017.9 mb - 0.00 in0.0 mm 0.00 in0.0 mm
08:00 AM 61.8°F16.6°C 54.9°F12.7°C 78% Calm Calm 1.2 mph1.9 kmh 30.06 in1017.9 mb - 0.00 in0.0 mm 0.00 in0.0 mm
07:55 AM 61.7°F16.5°C 55.1°F12.8°C 79% 1.2 mph S1.9 kmh S 3.5 mph5.6 kmh 30.06 in1017.9 mb - 0.00 in0.0 mm 0.00 in0.0 mm
07:50 AM 61.7°F16.5°C 54.8°F12.7°C 78% 1.2 mph S1.9 kmh S 1.2 mph1.9 kmh 30.06 in1017.9 mb - 0.00 in0.0 mm 0.00 in0.0 mm
07:45 AM 61.6°F16.4°C 55.0°F12.8°C 79% Calm Calm 1.2 mph1.9 kmh 30.06 in1017.9 mb - 0.00 in0.0 mm 0.00 in0.0 mm
07:40 AM 61.6°F16.4°C 55.0°F12.8°C 79% 1.2 mph SSE1.9 kmh SSE 3.5 mph5.6 kmh 30.06 in1017.9 mb - 0.00 in0.0 mm 0.00 in0.0 mm
07:35 AM 61.5°F16.4°C 55.3°F12.9°C 80% 1.2 mph S1.9 kmh S 2.3 mph3.7 kmh 30.06 in1017.9 mb - 0.00 in0.0 mm 0.00 in0.0 mm
07:30 AM 61.4°F16.3°C 55.2°F12.9°C 80% Calm Calm 1.2 mph1.9 kmh 30.06 in1017.9 mb - 0.00 in0.0 mm 0.00 in0.0 mm
07:25 AM 61.3°F16.3°C 55.1°F12.8°C 80% Calm Calm 1.2 mph1.9 kmh 30.06 in1017.9 mb - 0.00 in0.0 mm 0.00 in0.0 mm
07:20 AM 61.3°F16.3°C 55.1°F12.8°C 80% Calm Calm 1.2 mph1.9 kmh 30.06 in1017.9 mb - 0.00 in0.0 mm 0.00 in0.0 mm
07:15 AM 61.2°F16.2°C 55.3°F12.9°C 81% Calm Calm 1.2 mph1.9 kmh 30.06 in1017.9 mb - 0.00 in0.0 mm 0.00 in0.0 mm
07:10 AM 61.2°F16.2°C 55.0°F12.8°C 80% Calm Calm 1.2 mph1.9 kmh 30.06 in1017.9 mb - 0.00 in0.0 mm 0.00 in0.0 mm
07:00 AM 61.1°F16.2°C 54.9°F12.7°C 80% 1.2 mph SSE1.9 kmh SSE 3.5 mph5.6 kmh 30.05 in1017.6 mb - 0.00 in0.0 mm 0.00 in0.0 mm
06:55 AM 61.1°F16.2°C 55.2°F12.9°C 81% Calm Calm -- 30.05 in1017.6 mb - 0.00 in0.0 mm 0.00 in0.0 mm
06:50 AM 61.0°F16.1°C 55.1°F12.8°C 81% Calm Calm 1.2 mph1.9 kmh 30.05 in1017.6 mb - 0.00 in0.0 mm 0.00 in0.0 mm
06:45 AM 60.9°F16.1°C 55.0°F12.8°C 81% Calm Calm 1.2 mph1.9 kmh 30.05 in1017.6 mb - 0.00 in0.0 mm 0.00 in0.0 mm
06:40 AM 60.8°F16.0°C 54.9°F12.7°C 81% Calm Calm 2.3 mph3.7 kmh 30.05 in1017.6 mb - 0.00 in0.0 mm 0.00 in0.0 mm
06:35 AM 60.7°F15.9°C 54.5°F12.5°C 80% 1.2 mph SSE1.9 kmh SSE 2.3 mph3.7 kmh 30.05 in1017.6 mb - 0.00 in0.0 mm 0.00 in0.0 mm
06:30 AM 60.6°F15.9°C 54.8°F12.7°C 81% 1.2 mph SSE1.9 kmh SSE 1.2 mph1.9 kmh 30.05 in1017.6 mb - 0.00 in0.0 mm 0.00 in0.0 mm
06:25 AM 60.5°F15.8°C 54.7°F12.6°C 81% Calm Calm 1.2 mph1.9 kmh 30.05 in1017.6 mb - 0.00 in0.0 mm 0.00 in0.0 mm
06:20 AM 60.4°F15.8°C 54.5°F12.5°C 81% Calm Calm 3.5 mph5.6 kmh 30.05 in1017.6 mb - 0.00 in0.0 mm 0.00 in0.0 mm
06:15 AM 60.2°F15.7°C 54.7°F12.6°C 82% Calm Calm 1.2 mph1.9 kmh 30.05 in1017.6 mb - 0.00 in0.0 mm 0.00 in0.0 mm
06:10 AM 60.0°F15.6°C 54.5°F12.5°C 82% Calm Calm 1.2 mph1.9 kmh 30.05 in1017.6 mb - 0.00 in0.0 mm 0.00 in0.0 mm
06:00 AM 59.5°F15.3°C 54.3°F12.4°C 83% 1.2 mph SSE1.9 kmh SSE 1.2 mph1.9 kmh 30.05 in1017.6 mb - 0.00 in0.0 mm 0.00 in0.0 mm
05:55 AM 59.3°F15.2°C 54.5°F12.5°C 84% Calm Calm -- 30.05 in1017.6 mb - 0.00 in0.0 mm 0.00 in0.0 mm
05:50 AM 59.0°F15.0°C 54.2°F12.3°C 84% Calm Calm 1.2 mph1.9 kmh 30.04 in1017.3 mb - 0.00 in0.0 mm 0.00 in0.0 mm
05:45 AM 59.0°F15.0°C 54.2°F12.3°C 84% Calm Calm 1.2 mph1.9 kmh 30.04 in1017.3 mb - 0.00 in0.0 mm 0.00 in0.0 mm
05:40 AM 58.8°F14.9°C 53.9°F12.2°C 84% Calm Calm 1.2 mph1.9 kmh 30.04 in1017.3 mb - 0.00 in0.0 mm 0.00 in0.0 mm
05:35 AM 58.6°F14.8°C 54.1°F12.3°C 85% Calm Calm 1.2 mph1.9 kmh 30.04 in1017.3 mb - 0.00 in0.0 mm 0.00 in0.0 mm
05:30 AM 58.4°F14.7°C 53.9°F12.2°C 85% Calm Calm -- 30.04 in1017.3 mb - 0.00 in0.0 mm 0.00 in0.0 mm
05:25 AM 58.2°F14.6°C 53.7°F12.1°C 85% Calm Calm 1.2 mph1.9 kmh 30.04 in1017.3 mb - 0.00 in0.0 mm 0.00 in0.0 mm
05:20 AM 58.1°F14.5°C 53.6°F12.0°C 85% Calm Calm -- 30.04 in1017.3 mb - 0.00 in0.0 mm 0.00 in0.0 mm
05:15 AM 57.9°F14.4°C 54.1°F12.3°C 87% Calm Calm -- 30.04 in1017.3 mb - 0.00 in0.0 mm 0.00 in0.0 mm
05:10 AM 57.6°F14.2°C 53.4°F11.9°C 86% Calm Calm -- 30.04 in1017.3 mb - 0.00 in0.0 mm 0.00 in0.0 mm
05:00 AM 57.2°F14.0°C 53.1°F11.7°C 86% Calm Calm -- 30.04 in1017.3 mb - 0.00 in0.0 mm 0.00 in0.0 mm
04:55 AM 57.1°F13.9°C 53.2°F11.8°C 87% Calm Calm -- 30.04 in1017.3 mb - 0.00 in0.0 mm 0.00 in0.0 mm
04:50 AM 57.0°F13.9°C 52.9°F11.6°C 86% Calm Calm -- 30.04 in1017.3 mb - 0.00 in0.0 mm 0.00 in0.0 mm
04:45 AM 57.0°F13.9°C 52.5°F11.4°C 85% Calm Calm -- 30.04 in1017.3 mb - 0.00 in0.0 mm 0.00 in0.0 mm
04:40 AM 56.9°F13.8°C 53.0°F11.7°C 87% Calm Calm -- 30.04 in1017.3 mb - 0.00 in0.0 mm 0.00 in0.0 mm
04:35 AM 56.5°F13.6°C 52.7°F11.5°C 87% Calm Calm -- 30.04 in1017.3 mb - 0.00 in0.0 mm 0.00 in0.0 mm
04:30 AM 56.1°F13.4°C 52.6°F11.4°C 88% Calm Calm 1.2 mph1.9 kmh 30.04 in1017.3 mb - 0.00 in0.0 mm 0.00 in0.0 mm
04:25 AM 56.0°F13.3°C 51.8°F11.0°C 86% Calm Calm 1.2 mph1.9 kmh 30.04 in1017.3 mb - 0.00 in0.0 mm 0.00 in0.0 mm
04:20 AM 56.1°F13.4°C 52.0°F11.1°C 86% Calm Calm -- 30.04 in1017.3 mb - 0.00 in0.0 mm 0.00 in0.0 mm
04:15 AM 56.3°F13.5°C 52.2°F11.2°C 86% Calm Calm -- 30.04 in1017.3 mb - 0.00 in0.0 mm 0.00 in0.0 mm
04:10 AM 56.5°F13.6°C 52.4°F11.3°C 86% Calm Calm -- 30.04 in1017.3 mb - 0.00 in0.0 mm 0.00 in0.0 mm
04:00 AM 57.1°F13.9°C 52.3°F11.3°C 84% Calm Calm -- 30.04 in1017.3 mb - 0.00 in0.0 mm 0.00 in0.0 mm
03:55 AM 57.3°F14.1°C 52.2°F11.2°C 83% Calm Calm -- 30.03 in1016.9 mb - 0.00 in0.0 mm 0.00 in0.0 mm
03:50 AM 57.5°F14.2°C 52.4°F11.3°C 83% Calm Calm -- 30.03 in1016.9 mb - 0.00 in0.0 mm 0.00 in0.0 mm
03:45 AM 57.8°F14.3°C 52.7°F11.5°C 83% Calm Calm -- 30.03 in1016.9 mb - 0.00 in0.0 mm 0.00 in0.0 mm
03:40 AM 58.0°F14.4°C 52.9°F11.6°C 83% Calm Calm -- 30.03 in1016.9 mb - 0.00 in0.0 mm 0.00 in0.0 mm
03:35 AM 58.4°F14.7°C 52.9°F11.6°C 82% Calm Calm 1.2 mph1.9 kmh 30.03 in1016.9 mb - 0.00 in0.0 mm 0.00 in0.0 mm
03:30 AM 58.6°F14.8°C 53.1°F11.7°C 82% Calm Calm 1.2 mph1.9 kmh 30.03 in1016.9 mb - 0.00 in0.0 mm 0.00 in0.0 mm
03:25 AM 58.6°F14.8°C 53.8°F12.1°C 84% Calm Calm -- 30.02 in1016.6 mb - 0.00 in0.0 mm 0.00 in0.0 mm
03:20 AM 58.4°F14.7°C 53.3°F11.8°C 83% Calm Calm -- 30.02 in1016.6 mb - 0.00 in0.0 mm 0.00 in0.0 mm
03:15 AM 58.3°F14.6°C 53.2°F11.8°C 83% Calm Calm -- 30.02 in1016.6 mb - 0.00 in0.0 mm 0.00 in0.0 mm
03:10 AM 58.3°F14.6°C 53.2°F11.8°C 83% Calm Calm -- 30.03 in1016.9 mb - 0.00 in0.0 mm 0.00 in0.0 mm
03:00 AM 58.6°F14.8°C 53.4°F11.9°C 83% Calm Calm -- 30.03 in1016.9 mb - 0.00 in0.0 mm 0.00 in0.0 mm
02:55 AM 58.6°F14.8°C 53.5°F11.9°C 83% Calm Calm -- 30.03 in1016.9 mb - 0.00 in0.0 mm 0.00 in0.0 mm
02:50 AM 58.9°F14.9°C 53.0°F11.7°C 81% Calm Calm -- 30.02 in1016.6 mb - 0.00 in0.0 mm 0.00 in0.0 mm
02:45 AM 59.0°F15.0°C 53.2°F11.8°C 81% Calm Calm -- 30.02 in1016.6 mb - 0.00 in0.0 mm 0.00 in0.0 mm
02:40 AM 59.1°F15.1°C 53.3°F11.8°C 81% Calm Calm -- 30.02 in1016.6 mb - 0.00 in0.0 mm 0.00 in0.0 mm
02:35 AM 59.3°F15.2°C 53.5°F11.9°C 81% Calm Calm -- 30.02 in1016.6 mb - 0.00 in0.0 mm 0.00 in0.0 mm
02:30 AM 59.4°F15.2°C 53.6°F12.0°C 81% Calm Calm -- 30.02 in1016.6 mb - 0.00 in0.0 mm 0.00 in0.0 mm
02:25 AM 59.5°F15.3°C 53.7°F12.1°C 81% Calm Calm -- 30.02 in1016.6 mb - 0.00 in0.0 mm 0.00 in0.0 mm
02:20 AM 59.6°F15.3°C 53.4°F11.9°C 80% Calm Calm 1.2 mph1.9 kmh 30.02 in1016.6 mb - 0.00 in0.0 mm 0.00 in0.0 mm
02:15 AM 59.9°F15.5°C 53.3°F11.8°C 79% Calm Calm 1.2 mph1.9 kmh 30.02 in1016.6 mb - 0.00 in0.0 mm 0.00 in0.0 mm
02:10 AM 60.1°F15.6°C 53.9°F12.2°C 80% Calm Calm 2.3 mph3.7 kmh 30.02 in1016.6 mb - 0.00 in0.0 mm 0.00 in0.0 mm
02:00 AM 60.4°F15.8°C 54.2°F12.3°C 80% Calm Calm -- 30.02 in1016.6 mb - 0.00 in0.0 mm 0.00 in0.0 mm
01:55 AM 60.5°F15.8°C 54.0°F12.2°C 79% Calm Calm -- 30.02 in1016.6 mb - 0.00 in0.0 mm 0.00 in0.0 mm
01:50 AM 60.7°F15.9°C 54.1°F12.3°C 79% Calm Calm -- 30.02 in1016.6 mb - 0.00 in0.0 mm 0.00 in0.0 mm
01:45 AM 60.8°F16.0°C 53.8°F12.1°C 78% Calm Calm -- 30.02 in1016.6 mb - 0.00 in0.0 mm 0.00 in0.0 mm
01:40 AM 60.9°F16.1°C 54.0°F12.2°C 78% Calm Calm 2.3 mph3.7 kmh 30.02 in1016.6 mb - 0.00 in0.0 mm 0.00 in0.0 mm
01:35 AM 61.0°F16.1°C 53.7°F12.1°C 77% Calm Calm 1.2 mph1.9 kmh 30.01 in1016.3 mb - 0.00 in0.0 mm 0.00 in0.0 mm
01:30 AM 61.1°F16.2°C 53.8°F12.1°C 77% Calm Calm 1.2 mph1.9 kmh 30.01 in1016.3 mb - 0.00 in0.0 mm 0.00 in0.0 mm
01:25 AM 61.1°F16.2°C 54.2°F12.3°C 78% Calm Calm 1.2 mph1.9 kmh 30.01 in1016.3 mb - 0.00 in0.0 mm 0.00 in0.0 mm
01:20 AM 61.1°F16.2°C 53.8°F12.1°C 77% Calm Calm 1.2 mph1.9 kmh 30.01 in1016.3 mb - 0.00 in0.0 mm 0.00 in0.0 mm
01:15 AM 61.1°F16.2°C 53.8°F12.1°C 77% Calm Calm 1.2 mph1.9 kmh 30.01 in1016.3 mb - 0.00 in0.0 mm 0.00 in0.0 mm
01:10 AM 61.1°F16.2°C 53.8°F12.1°C 77% Calm Calm 1.2 mph1.9 kmh 30.01 in1016.3 mb - 0.00 in0.0 mm 0.00 in0.0 mm
01:00 AM 60.9°F16.1°C 54.0°F12.2°C 78% Calm Calm 1.2 mph1.9 kmh 30.01 in1016.3 mb - 0.00 in0.0 mm 0.00 in0.0 mm
12:55 AM 60.8°F16.0°C 53.5°F11.9°C 77% Calm Calm 1.2 mph1.9 kmh 30.01 in1016.3 mb - 0.00 in0.0 mm 0.00 in0.0 mm
12:50 AM 60.7°F15.9°C 53.8°F12.1°C 78% Calm Calm 1.2 mph1.9 kmh 30.01 in1016.3 mb - 0.00 in0.0 mm 0.00 in0.0 mm
12:45 AM 60.6°F15.9°C 53.4°F11.9°C 77% Calm Calm -- 30.01 in1016.3 mb - 0.00 in0.0 mm 0.00 in0.0 mm
12:40 AM 60.6°F15.9°C 53.3°F11.8°C 77% Calm Calm -- 30.01 in1016.3 mb - 0.00 in0.0 mm 0.00 in0.0 mm
12:35 AM 60.6°F15.9°C 53.0°F11.7°C 76% Calm Calm 3.5 mph5.6 kmh 30.01 in1016.3 mb - 0.00 in0.0 mm 0.00 in0.0 mm
12:30 AM 60.7°F15.9°C 53.1°F11.7°C 76% Calm Calm -- 30.01 in1016.3 mb - 0.00 in0.0 mm 0.00 in0.0 mm
12:25 AM 60.9°F16.1°C 53.3°F11.8°C 76% Calm Calm -- 30.01 in1016.3 mb - 0.00 in0.0 mm 0.00 in0.0 mm
12:20 AM 61.2°F16.2°C 53.2°F11.8°C 75% Calm Calm 1.2 mph1.9 kmh 30.01 in1016.3 mb - 0.00 in0.0 mm 0.00 in0.0 mm
12:15 AM 61.5°F16.4°C 53.1°F11.7°C 74% Calm Calm -- 30.01 in1016.3 mb - 0.00 in0.0 mm 0.00 in0.0 mm
12:10 AM 61.8°F16.6°C 53.4°F11.9°C 74% Calm Calm -- 30.00 in1015.9 mb - 0.00 in0.0 mm 0.00 in0.0 mm
12:00 AM 62.2°F16.8°C 53.4°F11.9°C 73% Calm Calm -- 30.00 in1015.9 mb - 0.00 in0.0 mm 0.00 in0.0 mm